sensor_id;sensor_type;location;lat;lon;timestamp;P1;durP1;ratioP1;P2;durP2;ratioP2
44272;SDS011;29964;17.182;-96.766;2023-05-10T00:01:59;9.83;;;6.20;;
44272;SDS011;29964;17.182;-96.766;2023-05-10T00:04:26;13.77;;;8.13;;
44272;SDS011;29964;17.182;-96.766;2023-05-10T00:06:53;9.97;;;7.10;;
44272;SDS011;29964;17.182;-96.766;2023-05-10T00:09:20;11.57;;;8.50;;
44272;SDS011;29964;17.182;-96.766;2023-05-10T00:11:46;11.67;;;7.73;;
44272;SDS011;29964;17.182;-96.766;2023-05-10T00:14:13;15.90;;;10.03;;
44272;SDS011;29964;17.182;-96.766;2023-05-10T00:16:40;10.33;;;8.23;;
44272;SDS011;29964;17.182;-96.766;2023-05-10T00:19:07;12.77;;;9.37;;
44272;SDS011;29964;17.182;-96.766;2023-05-10T00:21:34;18.60;;;10.57;;
44272;SDS011;29964;17.182;-96.766;2023-05-10T00:24:00;8.73;;;6.93;;
44272;SDS011;29964;17.182;-96.766;2023-05-10T00:26:27;12.13;;;9.20;;
44272;SDS011;29964;17.182;-96.766;2023-05-10T00:28:54;9.23;;;7.50;;
44272;SDS011;29964;17.182;-96.766;2023-05-10T00:31:21;20.70;;;10.37;;
44272;SDS011;29964;17.182;-96.766;2023-05-10T00:33:47;18.00;;;9.57;;
44272;SDS011;29964;17.182;-96.766;2023-05-10T00:36:14;11.70;;;9.33;;
44272;SDS011;29964;17.182;-96.766;2023-05-10T00:38:41;15.03;;;9.93;;
44272;SDS011;29964;17.182;-96.766;2023-05-10T00:41:07;13.07;;;8.53;;
44272;SDS011;29964;17.182;-96.766;2023-05-10T00:43:34;14.27;;;8.43;;
44272;SDS011;29964;17.182;-96.766;2023-05-10T00:46:01;8.83;;;7.03;;
44272;SDS011;29964;17.182;-96.766;2023-05-10T00:48:28;10.67;;;8.03;;
44272;SDS011;29964;17.182;-96.766;2023-05-10T00:50:55;12.00;;;9.00;;
44272;SDS011;29964;17.182;-96.766;2023-05-10T00:53:22;10.37;;;8.13;;
44272;SDS011;29964;17.182;-96.766;2023-05-10T00:55:49;14.90;;;9.67;;
44272;SDS011;29964;17.182;-96.766;2023-05-10T00:58:16;15.97;;;9.60;;
44272;SDS011;29964;17.182;-96.766;2023-05-10T01:00:43;12.97;;;8.97;;
44272;SDS011;29964;17.182;-96.766;2023-05-10T01:03:13;14.23;;;9.50;;
44272;SDS011;29964;17.182;-96.766;2023-05-10T01:05:40;11.63;;;8.63;;
44272;SDS011;29964;17.182;-96.766;2023-05-10T01:08:07;15.87;;;9.00;;
44272;SDS011;29964;17.182;-96.766;2023-05-10T01:10:34;19.73;;;10.93;;
44272;SDS011;29964;17.182;-96.766;2023-05-10T01:13:01;21.40;;;11.30;;
44272;SDS011;29964;17.182;-96.766;2023-05-10T01:15:28;15.23;;;10.40;;
44272;SDS011;29964;17.182;-96.766;2023-05-10T01:17:56;11.93;;;8.73;;
44272;SDS011;29964;17.182;-96.766;2023-05-10T01:20:23;13.20;;;9.37;;
44272;SDS011;29964;17.182;-96.766;2023-05-10T01:28:23;13.80;;;8.83;;
44272;SDS011;29964;17.182;-96.766;2023-05-10T01:38:38;9.10;;;7.63;;
44272;SDS011;29964;17.182;-96.766;2023-05-10T01:41:18;14.07;;;8.73;;
44272;SDS011;29964;17.182;-96.766;2023-05-10T01:44:23;14.03;;;8.80;;
44272;SDS011;29964;17.182;-96.766;2023-05-10T01:46:39;14.83;;;8.20;;
44272;SDS011;29964;17.182;-96.766;2023-05-10T01:49:11;8.87;;;7.87;;
44272;SDS011;29964;17.182;-96.766;2023-05-10T01:51:41;15.70;;;9.10;;
44272;SDS011;29964;17.182;-96.766;2023-05-10T01:54:08;23.13;;;8.40;;
44272;SDS011;29964;17.182;-96.766;2023-05-10T01:56:36;12.07;;;7.97;;
44272;SDS011;29964;17.182;-96.766;2023-05-10T01:59:05;18.63;;;9.83;;
44272;SDS011;29964;17.182;-96.766;2023-05-10T02:01:32;16.40;;;9.93;;
44272;SDS011;29964;17.182;-96.766;2023-05-10T02:04:00;16.93;;;9.97;;
44272;SDS011;29964;17.182;-96.766;2023-05-10T02:06:27;10.93;;;8.80;;
44272;SDS011;29964;17.182;-96.766;2023-05-10T02:08:54;17.13;;;7.60;;
44272;SDS011;29964;17.182;-96.766;2023-05-10T02:11:21;12.07;;;7.10;;
44272;SDS011;29964;17.182;-96.766;2023-05-10T02:13:50;12.73;;;8.60;;
44272;SDS011;29964;17.182;-96.766;2023-05-10T02:16:18;23.27;;;8.17;;
44272;SDS011;29964;17.182;-96.766;2023-05-10T02:18:47;12.20;;;8.40;;
44272;SDS011;29964;17.182;-96.766;2023-05-10T02:21:14;10.10;;;7.23;;
44272;SDS011;29964;17.182;-96.766;2023-05-10T02:23:42;14.10;;;9.17;;
44272;SDS011;29964;17.182;-96.766;2023-05-10T02:26:09;10.13;;;7.13;;
44272;SDS011;29964;17.182;-96.766;2023-05-10T02:28:37;9.67;;;7.63;;
44272;SDS011;29964;17.182;-96.766;2023-05-10T02:31:05;12.90;;;8.13;;
44272;SDS011;29964;17.182;-96.766;2023-05-10T02:33:32;11.23;;;7.17;;
44272;SDS011;29964;17.182;-96.766;2023-05-10T02:36:01;11.80;;;7.47;;
44272;SDS011;29964;17.182;-96.766;2023-05-10T02:38:28;14.83;;;8.77;;
44272;SDS011;29964;17.182;-96.766;2023-05-10T02:40:56;12.30;;;8.67;;
44272;SDS011;29964;17.182;-96.766;2023-05-10T02:43:23;14.27;;;10.00;;
44272;SDS011;29964;17.182;-96.766;2023-05-10T02:45:51;19.30;;;8.93;;
44272;SDS011;29964;17.182;-96.766;2023-05-10T02:48:17;10.77;;;8.17;;
44272;SDS011;29964;17.182;-96.766;2023-05-10T02:50:44;13.23;;;9.90;;
44272;SDS011;29964;17.182;-96.766;2023-05-10T02:53:18;9.90;;;8.90;;
44272;SDS011;29964;17.182;-96.766;2023-05-10T02:55:49;18.97;;;9.73;;
44272;SDS011;29964;17.182;-96.766;2023-05-10T02:58:17;12.93;;;8.50;;
44272;SDS011;29964;17.182;-96.766;2023-05-10T03:00:46;37.83;;;9.00;;
44272;SDS011;29964;17.182;-96.766;2023-05-10T03:03:13;12.03;;;9.00;;
44272;SDS011;29964;17.182;-96.766;2023-05-10T03:05:40;10.17;;;7.60;;
44272;SDS011;29964;17.182;-96.766;2023-05-10T03:08:09;13.30;;;8.03;;
44272;SDS011;29964;17.182;-96.766;2023-05-10T03:10:38;10.33;;;7.53;;
44272;SDS011;29964;17.182;-96.766;2023-05-10T03:19:11;9.68;;;8.00;;
44272;SDS011;29964;17.182;-96.766;2023-05-10T03:21:39;13.13;;;7.57;;
44272;SDS011;29964;17.182;-96.766;2023-05-10T03:24:08;12.03;;;7.13;;
44272;SDS011;29964;17.182;-96.766;2023-05-10T03:26:37;10.93;;;6.60;;
44272;SDS011;29964;17.182;-96.766;2023-05-10T03:29:05;10.77;;;7.20;;
44272;SDS011;29964;17.182;-96.766;2023-05-10T03:31:32;8.70;;;7.23;;
44272;SDS011;29964;17.182;-96.766;2023-05-10T03:33:59;8.30;;;6.13;;
44272;SDS011;29964;17.182;-96.766;2023-05-10T03:36:26;11.87;;;7.67;;
44272;SDS011;29964;17.182;-96.766;2023-05-10T03:38:53;7.33;;;6.07;;
44272;SDS011;29964;17.182;-96.766;2023-05-10T03:41:20;8.03;;;5.87;;
44272;SDS011;29964;17.182;-96.766;2023-05-10T03:43:47;7.40;;;5.87;;
44272;SDS011;29964;17.182;-96.766;2023-05-10T03:46:13;9.27;;;6.43;;
44272;SDS011;29964;17.182;-96.766;2023-05-10T03:48:40;10.87;;;6.50;;
44272;SDS011;29964;17.182;-96.766;2023-05-10T03:51:07;6.93;;;5.93;;
44272;SDS011;29964;17.182;-96.766;2023-05-10T03:53:34;11.73;;;6.80;;
44272;SDS011;29964;17.182;-96.766;2023-05-10T03:56:01;9.80;;;6.43;;
44272;SDS011;29964;17.182;-96.766;2023-05-10T03:58:27;9.13;;;7.13;;
44272;SDS011;29964;17.182;-96.766;2023-05-10T04:00:54;12.93;;;6.93;;
44272;SDS011;29964;17.182;-96.766;2023-05-10T04:03:21;16.07;;;6.07;;
44272;SDS011;29964;17.182;-96.766;2023-05-10T04:05:48;8.90;;;6.87;;
44272;SDS011;29964;17.182;-96.766;2023-05-10T04:08:15;7.03;;;5.37;;
44272;SDS011;29964;17.182;-96.766;2023-05-10T04:10:42;11.17;;;5.77;;
44272;SDS011;29964;17.182;-96.766;2023-05-10T04:13:09;7.40;;;5.93;;
44272;SDS011;29964;17.182;-96.766;2023-05-10T04:15:36;7.33;;;5.00;;
44272;SDS011;29964;17.182;-96.766;2023-05-10T04:18:03;6.53;;;5.30;;
44272;SDS011;29964;17.182;-96.766;2023-05-10T04:20:30;7.27;;;5.17;;
44272;SDS011;29964;17.182;-96.766;2023-05-10T04:22:58;6.63;;;5.50;;
44272;SDS011;29964;17.182;-96.766;2023-05-10T04:25:25;8.50;;;6.83;;
44272;SDS011;29964;17.182;-96.766;2023-05-10T04:27:52;9.80;;;6.73;;
44272;SDS011;29964;17.182;-96.766;2023-05-10T04:30:19;8.00;;;6.37;;
44272;SDS011;29964;17.182;-96.766;2023-05-10T04:32:45;23.80;;;6.93;;
44272;SDS011;29964;17.182;-96.766;2023-05-10T04:35:12;7.17;;;5.43;;
44272;SDS011;29964;17.182;-96.766;2023-05-10T04:37:40;8.00;;;5.77;;
44272;SDS011;29964;17.182;-96.766;2023-05-10T04:40:07;9.07;;;7.37;;
44272;SDS011;29964;17.182;-96.766;2023-05-10T04:42:34;9.03;;;6.90;;
44272;SDS011;29964;17.182;-96.766;2023-05-10T04:45:00;9.13;;;7.43;;
44272;SDS011;29964;17.182;-96.766;2023-05-10T04:47:28;8.57;;;6.30;;
44272;SDS011;29964;17.182;-96.766;2023-05-10T04:49:54;7.80;;;6.20;;
44272;SDS011;29964;17.182;-96.766;2023-05-10T04:52:21;5.77;;;4.70;;
44272;SDS011;29964;17.182;-96.766;2023-05-10T04:54:48;10.67;;;6.87;;
44272;SDS011;29964;17.182;-96.766;2023-05-10T04:57:14;8.63;;;5.57;;
44272;SDS011;29964;17.182;-96.766;2023-05-10T04:59:41;9.33;;;6.50;;
44272;SDS011;29964;17.182;-96.766;2023-05-10T05:02:08;9.97;;;6.10;;
44272;SDS011;29964;17.182;-96.766;2023-05-10T05:04:35;8.10;;;6.17;;
44272;SDS011;29964;17.182;-96.766;2023-05-10T05:07:01;11.23;;;6.00;;
44272;SDS011;29964;17.182;-96.766;2023-05-10T05:09:28;9.67;;;6.20;;
44272;SDS011;29964;17.182;-96.766;2023-05-10T05:11:57;9.23;;;5.97;;
44272;SDS011;29964;17.182;-96.766;2023-05-10T05:14:24;8.70;;;7.03;;
44272;SDS011;29964;17.182;-96.766;2023-05-10T05:16:51;8.50;;;7.37;;
44272;SDS011;29964;17.182;-96.766;2023-05-10T05:19:18;11.47;;;7.67;;
44272;SDS011;29964;17.182;-96.766;2023-05-10T05:21:45;11.60;;;8.93;;
44272;SDS011;29964;17.182;-96.766;2023-05-10T05:24:12;24.67;;;9.73;;
44272;SDS011;29964;17.182;-96.766;2023-05-10T05:26:39;12.87;;;7.70;;
44272;SDS011;29964;17.182;-96.766;2023-05-10T05:29:05;11.87;;;7.93;;
44272;SDS011;29964;17.182;-96.766;2023-05-10T05:31:32;9.13;;;6.87;;
44272;SDS011;29964;17.182;-96.766;2023-05-10T05:33:59;8.57;;;7.60;;
44272;SDS011;29964;17.182;-96.766;2023-05-10T05:36:25;10.63;;;7.63;;
44272;SDS011;29964;17.182;-96.766;2023-05-10T05:38:52;10.80;;;8.07;;
44272;SDS011;29964;17.182;-96.766;2023-05-10T05:41:22;11.37;;;8.37;;
44272;SDS011;29964;17.182;-96.766;2023-05-10T05:43:49;12.67;;;8.27;;
44272;SDS011;29964;17.182;-96.766;2023-05-10T05:46:16;11.53;;;8.33;;
44272;SDS011;29964;17.182;-96.766;2023-05-10T05:48:43;11.07;;;8.40;;
44272;SDS011;29964;17.182;-96.766;2023-05-10T05:51:10;10.27;;;7.50;;
44272;SDS011;29964;17.182;-96.766;2023-05-10T05:53:36;11.00;;;7.77;;
44272;SDS011;29964;17.182;-96.766;2023-05-10T05:56:03;9.90;;;6.83;;
44272;SDS011;29964;17.182;-96.766;2023-05-10T05:58:30;9.40;;;6.60;;
44272;SDS011;29964;17.182;-96.766;2023-05-10T06:00:57;11.83;;;7.67;;
44272;SDS011;29964;17.182;-96.766;2023-05-10T06:03:24;9.00;;;6.80;;
44272;SDS011;29964;17.182;-96.766;2023-05-10T06:05:51;8.20;;;5.47;;
44272;SDS011;29964;17.182;-96.766;2023-05-10T06:08:17;11.87;;;6.40;;
44272;SDS011;29964;17.182;-96.766;2023-05-10T06:10:44;12.87;;;7.60;;
44272;SDS011;29964;17.182;-96.766;2023-05-10T06:13:11;35.30;;;7.20;;
44272;SDS011;29964;17.182;-96.766;2023-05-10T06:15:38;9.33;;;5.67;;
44272;SDS011;29964;17.182;-96.766;2023-05-10T06:18:05;7.60;;;5.27;;
44272;SDS011;29964;17.182;-96.766;2023-05-10T06:20:32;5.93;;;4.67;;
44272;SDS011;29964;17.182;-96.766;2023-05-10T06:22:58;5.50;;;3.93;;
44272;SDS011;29964;17.182;-96.766;2023-05-10T06:25:25;6.13;;;4.83;;
44272;SDS011;29964;17.182;-96.766;2023-05-10T06:27:52;6.57;;;4.27;;
44272;SDS011;29964;17.182;-96.766;2023-05-10T06:30:22;6.77;;;5.37;;
44272;SDS011;29964;17.182;-96.766;2023-05-10T06:32:52;7.27;;;5.57;;
44272;SDS011;29964;17.182;-96.766;2023-05-10T06:35:19;8.40;;;6.77;;
44272;SDS011;29964;17.182;-96.766;2023-05-10T06:37:46;6.93;;;5.40;;
44272;SDS011;29964;17.182;-96.766;2023-05-10T06:40:13;10.70;;;7.20;;
44272;SDS011;29964;17.182;-96.766;2023-05-10T06:42:39;11.90;;;6.77;;
44272;SDS011;29964;17.182;-96.766;2023-05-10T06:45:06;10.93;;;7.03;;
44272;SDS011;29964;17.182;-96.766;2023-05-10T06:47:34;11.40;;;8.07;;
44272;SDS011;29964;17.182;-96.766;2023-05-10T06:50:01;12.77;;;9.13;;
44272;SDS011;29964;17.182;-96.766;2023-05-10T06:52:28;8.83;;;7.87;;
44272;SDS011;29964;17.182;-96.766;2023-05-10T06:54:55;10.37;;;7.47;;
44272;SDS011;29964;17.182;-96.766;2023-05-10T06:57:22;10.93;;;8.90;;
44272;SDS011;29964;17.182;-96.766;2023-05-10T06:59:50;14.67;;;8.10;;
44272;SDS011;29964;17.182;-96.766;2023-05-10T07:02:16;9.87;;;7.43;;
44272;SDS011;29964;17.182;-96.766;2023-05-10T07:04:43;11.23;;;7.47;;
44272;SDS011;29964;17.182;-96.766;2023-05-10T07:07:10;9.90;;;7.27;;
44272;SDS011;29964;17.182;-96.766;2023-05-10T07:09:37;10.90;;;7.83;;
44272;SDS011;29964;17.182;-96.766;2023-05-10T07:12:04;10.00;;;8.10;;
44272;SDS011;29964;17.182;-96.766;2023-05-10T07:14:31;10.83;;;7.57;;
44272;SDS011;29964;17.182;-96.766;2023-05-10T07:16:57;11.07;;;7.13;;
44272;SDS011;29964;17.182;-96.766;2023-05-10T07:19:24;22.77;;;7.30;;
44272;SDS011;29964;17.182;-96.766;2023-05-10T07:21:51;12.20;;;7.40;;
44272;SDS011;29964;17.182;-96.766;2023-05-10T07:24:17;8.17;;;6.27;;
44272;SDS011;29964;17.182;-96.766;2023-05-10T07:26:44;8.40;;;7.43;;
44272;SDS011;29964;17.182;-96.766;2023-05-10T07:29:11;7.20;;;6.47;;
44272;SDS011;29964;17.182;-96.766;2023-05-10T07:31:38;9.70;;;7.13;;
44272;SDS011;29964;17.182;-96.766;2023-05-10T07:34:07;8.47;;;7.00;;
44272;SDS011;29964;17.182;-96.766;2023-05-10T07:36:34;9.07;;;6.90;;
44272;SDS011;29964;17.182;-96.766;2023-05-10T07:39:01;9.10;;;6.60;;
44272;SDS011;29964;17.182;-96.766;2023-05-10T07:41:27;9.07;;;6.93;;
44272;SDS011;29964;17.182;-96.766;2023-05-10T07:43:54;9.40;;;5.83;;
44272;SDS011;29964;17.182;-96.766;2023-05-10T07:46:21;10.80;;;6.67;;
44272;SDS011;29964;17.182;-96.766;2023-05-10T07:48:47;25.23;;;7.77;;
44272;SDS011;29964;17.182;-96.766;2023-05-10T07:51:14;12.60;;;7.93;;
44272;SDS011;29964;17.182;-96.766;2023-05-10T07:53:41;8.93;;;7.97;;
44272;SDS011;29964;17.182;-96.766;2023-05-10T07:56:21;9.57;;;7.70;;
44272;SDS011;29964;17.182;-96.766;2023-05-10T07:58:48;7.70;;;6.57;;
44272;SDS011;29964;17.182;-96.766;2023-05-10T08:01:15;10.53;;;7.67;;
44272;SDS011;29964;17.182;-96.766;2023-05-10T08:03:42;8.00;;;6.70;;
44272;SDS011;29964;17.182;-96.766;2023-05-10T08:06:08;6.70;;;5.27;;
44272;SDS011;29964;17.182;-96.766;2023-05-10T08:08:35;7.47;;;6.27;;
44272;SDS011;29964;17.182;-96.766;2023-05-10T08:11:03;6.80;;;5.80;;
44272;SDS011;29964;17.182;-96.766;2023-05-10T08:13:30;7.53;;;5.67;;
44272;SDS011;29964;17.182;-96.766;2023-05-10T08:15:57;8.27;;;5.80;;
44272;SDS011;29964;17.182;-96.766;2023-05-10T08:18:24;17.83;;;7.97;;
44272;SDS011;29964;17.182;-96.766;2023-05-10T08:20:50;17.43;;;10.43;;
44272;SDS011;29964;17.182;-96.766;2023-05-10T08:23:17;12.37;;;8.53;;
44272;SDS011;29964;17.182;-96.766;2023-05-10T08:25:44;13.67;;;9.00;;
44272;SDS011;29964;17.182;-96.766;2023-05-10T08:28:10;9.03;;;7.30;;
44272;SDS011;29964;17.182;-96.766;2023-05-10T08:30:37;10.77;;;8.07;;
44272;SDS011;29964;17.182;-96.766;2023-05-10T08:33:04;13.90;;;9.17;;
44272;SDS011;29964;17.182;-96.766;2023-05-10T08:35:31;16.30;;;8.87;;
44272;SDS011;29964;17.182;-96.766;2023-05-10T08:37:59;8.00;;;7.00;;
44272;SDS011;29964;17.182;-96.766;2023-05-10T08:40:26;8.83;;;6.97;;
44272;SDS011;29964;17.182;-96.766;2023-05-10T08:42:55;10.07;;;8.00;;
44272;SDS011;29964;17.182;-96.766;2023-05-10T08:45:23;12.77;;;8.60;;
44272;SDS011;29964;17.182;-96.766;2023-05-10T08:47:51;11.67;;;9.07;;
44272;SDS011;29964;17.182;-96.766;2023-05-10T08:50:19;11.50;;;8.97;;
44272;SDS011;29964;17.182;-96.766;2023-05-10T08:52:47;9.20;;;7.23;;
44272;SDS011;29964;17.182;-96.766;2023-05-10T08:55:15;11.40;;;8.27;;
44272;SDS011;29964;17.182;-96.766;2023-05-10T08:57:42;9.63;;;7.93;;
44272;SDS011;29964;17.182;-96.766;2023-05-10T09:00:09;14.47;;;8.97;;
44272;SDS011;29964;17.182;-96.766;2023-05-10T09:02:36;11.47;;;9.23;;
44272;SDS011;29964;17.182;-96.766;2023-05-10T09:05:03;9.03;;;7.20;;
44272;SDS011;29964;17.182;-96.766;2023-05-10T09:07:30;10.13;;;8.00;;
44272;SDS011;29964;17.182;-96.766;2023-05-10T09:09:57;10.03;;;6.77;;
44272;SDS011;29964;17.182;-96.766;2023-05-10T09:12:24;8.87;;;6.93;;
44272;SDS011;29964;17.182;-96.766;2023-05-10T09:14:51;12.10;;;7.77;;
44272;SDS011;29964;17.182;-96.766;2023-05-10T09:17:18;11.00;;;5.97;;
44272;SDS011;29964;17.182;-96.766;2023-05-10T09:19:45;14.30;;;7.67;;
44272;SDS011;29964;17.182;-96.766;2023-05-10T09:22:12;8.70;;;6.50;;
44272;SDS011;29964;17.182;-96.766;2023-05-10T09:24:38;8.60;;;5.83;;
44272;SDS011;29964;17.182;-96.766;2023-05-10T09:27:10;11.10;;;6.47;;
44272;SDS011;29964;17.182;-96.766;2023-05-10T09:29:41;8.37;;;6.07;;
44272;SDS011;29964;17.182;-96.766;2023-05-10T09:32:08;10.73;;;7.40;;
44272;SDS011;29964;17.182;-96.766;2023-05-10T09:34:34;4.90;;;4.13;;
44272;SDS011;29964;17.182;-96.766;2023-05-10T09:37:05;8.73;;;5.53;;
44272;SDS011;29964;17.182;-96.766;2023-05-10T09:39:33;10.53;;;6.70;;
44272;SDS011;29964;17.182;-96.766;2023-05-10T09:42:04;7.50;;;6.43;;
44272;SDS011;29964;17.182;-96.766;2023-05-10T09:44:32;15.63;;;8.07;;
44272;SDS011;29964;17.182;-96.766;2023-05-10T09:46:59;9.37;;;7.13;;
44272;SDS011;29964;17.182;-96.766;2023-05-10T09:49:26;7.90;;;5.87;;
44272;SDS011;29964;17.182;-96.766;2023-05-10T09:52:03;9.50;;;7.47;;
44272;SDS011;29964;17.182;-96.766;2023-05-10T09:54:31;6.30;;;5.57;;
44272;SDS011;29964;17.182;-96.766;2023-05-10T09:56:57;9.50;;;5.93;;
44272;SDS011;29964;17.182;-96.766;2023-05-10T09:59:25;6.57;;;5.13;;
44272;SDS011;29964;17.182;-96.766;2023-05-10T10:01:56;9.63;;;6.70;;
44272;SDS011;29964;17.182;-96.766;2023-05-10T10:04:23;11.87;;;7.37;;
44272;SDS011;29964;17.182;-96.766;2023-05-10T10:07:00;10.97;;;7.30;;
44272;SDS011;29964;17.182;-96.766;2023-05-10T10:09:27;16.27;;;7.47;;
44272;SDS011;29964;17.182;-96.766;2023-05-10T10:11:53;10.77;;;7.57;;
44272;SDS011;29964;17.182;-96.766;2023-05-10T10:14:21;11.00;;;7.53;;
44272;SDS011;29964;17.182;-96.766;2023-05-10T10:16:49;7.30;;;6.00;;
44272;SDS011;29964;17.182;-96.766;2023-05-10T10:19:17;9.50;;;7.20;;
44272;SDS011;29964;17.182;-96.766;2023-05-10T10:21:44;9.10;;;6.70;;
44272;SDS011;29964;17.182;-96.766;2023-05-10T10:24:11;7.53;;;5.47;;
44272;SDS011;29964;17.182;-96.766;2023-05-10T10:26:38;8.40;;;5.87;;
44272;SDS011;29964;17.182;-96.766;2023-05-10T10:29:20;6.07;;;5.47;;
44272;SDS011;29964;17.182;-96.766;2023-05-10T10:32:03;10.87;;;5.97;;
44272;SDS011;29964;17.182;-96.766;2023-05-10T10:34:32;7.87;;;5.87;;
44272;SDS011;29964;17.182;-96.766;2023-05-10T10:37:03;6.40;;;5.10;;
44272;SDS011;29964;17.182;-96.766;2023-05-10T10:39:30;9.50;;;7.83;;
44272;SDS011;29964;17.182;-96.766;2023-05-10T10:41:58;8.73;;;6.50;;
44272;SDS011;29964;17.182;-96.766;2023-05-10T10:44:26;11.87;;;7.50;;
44272;SDS011;29964;17.182;-96.766;2023-05-10T10:49:31;9.30;;;6.13;;
44272;SDS011;29964;17.182;-96.766;2023-05-10T10:54:49;8.35;;;5.82;;
44272;SDS011;29964;17.182;-96.766;2023-05-10T10:57:17;8.77;;;6.53;;
44272;SDS011;29964;17.182;-96.766;2023-05-10T10:59:45;5.67;;;4.80;;
44272;SDS011;29964;17.182;-96.766;2023-05-10T11:04:56;8.45;;;4.93;;
44272;SDS011;29964;17.182;-96.766;2023-05-10T11:07:23;5.17;;;4.53;;
44272;SDS011;29964;17.182;-96.766;2023-05-10T11:09:50;15.53;;;6.73;;
44272;SDS011;29964;17.182;-96.766;2023-05-10T11:12:17;8.63;;;6.27;;
44272;SDS011;29964;17.182;-96.766;2023-05-10T11:14:48;8.00;;;5.63;;
44272;SDS011;29964;17.182;-96.766;2023-05-10T11:17:23;9.00;;;7.03;;
44272;SDS011;29964;17.182;-96.766;2023-05-10T11:20:13;6.65;;;5.25;;
44272;SDS011;29964;17.182;-96.766;2023-05-10T11:22:52;11.40;;;7.50;;
44272;SDS011;29964;17.182;-96.766;2023-05-10T11:25:19;10.83;;;7.57;;
44272;SDS011;29964;17.182;-96.766;2023-05-10T11:27:49;6.77;;;5.43;;
44272;SDS011;29964;17.182;-96.766;2023-05-10T11:30:16;14.63;;;6.83;;
44272;SDS011;29964;17.182;-96.766;2023-05-10T11:32:43;6.30;;;5.63;;
44272;SDS011;29964;17.182;-96.766;2023-05-10T11:35:11;5.10;;;4.50;;
44272;SDS011;29964;17.182;-96.766;2023-05-10T11:37:41;8.33;;;5.90;;
44272;SDS011;29964;17.182;-96.766;2023-05-10T11:40:09;8.63;;;5.33;;
44272;SDS011;29964;17.182;-96.766;2023-05-10T11:42:39;8.07;;;6.40;;
44272;SDS011;29964;17.182;-96.766;2023-05-10T11:45:06;10.27;;;5.93;;
44272;SDS011;29964;17.182;-96.766;2023-05-10T11:47:33;9.60;;;4.63;;
44272;SDS011;29964;17.182;-96.766;2023-05-10T11:50:01;7.93;;;5.27;;
44272;SDS011;29964;17.182;-96.766;2023-05-10T11:52:28;9.70;;;5.90;;
44272;SDS011;29964;17.182;-96.766;2023-05-10T11:54:55;8.47;;;5.67;;
44272;SDS011;29964;17.182;-96.766;2023-05-10T11:57:26;10.97;;;5.27;;
44272;SDS011;29964;17.182;-96.766;2023-05-10T11:59:54;21.93;;;5.97;;
44272;SDS011;29964;17.182;-96.766;2023-05-10T12:02:21;10.43;;;5.57;;
44272;SDS011;29964;17.182;-96.766;2023-05-10T12:04:48;9.17;;;5.40;;
44272;SDS011;29964;17.182;-96.766;2023-05-10T12:07:15;5.07;;;4.37;;
44272;SDS011;29964;17.182;-96.766;2023-05-10T12:10:01;7.60;;;5.27;;
44272;SDS011;29964;17.182;-96.766;2023-05-10T12:12:37;9.27;;;5.70;;
44272;SDS011;29964;17.182;-96.766;2023-05-10T12:15:05;8.67;;;4.87;;
44272;SDS011;29964;17.182;-96.766;2023-05-10T12:17:32;8.87;;;5.43;;
44272;SDS011;29964;17.182;-96.766;2023-05-10T12:20:21;8.77;;;6.27;;
44272;SDS011;29964;17.182;-96.766;2023-05-10T12:22:47;7.70;;;5.27;;
44272;SDS011;29964;17.182;-96.766;2023-05-10T12:25:15;5.23;;;4.33;;
44272;SDS011;29964;17.182;-96.766;2023-05-10T12:27:52;3.77;;;3.37;;
44272;SDS011;29964;17.182;-96.766;2023-05-10T12:30:28;5.87;;;5.13;;
44272;SDS011;29964;17.182;-96.766;2023-05-10T12:33:00;11.30;;;6.33;;
44272;SDS011;29964;17.182;-96.766;2023-05-10T12:35:29;9.53;;;5.80;;
44272;SDS011;29964;17.182;-96.766;2023-05-10T12:37:56;9.87;;;6.73;;
44272;SDS011;29964;17.182;-96.766;2023-05-10T12:40:23;6.53;;;4.57;;
44272;SDS011;29964;17.182;-96.766;2023-05-10T12:42:50;8.50;;;5.60;;
44272;SDS011;29964;17.182;-96.766;2023-05-10T12:45:17;4.93;;;3.83;;
44272;SDS011;29964;17.182;-96.766;2023-05-10T12:47:45;8.60;;;5.33;;
44272;SDS011;29964;17.182;-96.766;2023-05-10T12:50:11;6.37;;;4.93;;
44272;SDS011;29964;17.182;-96.766;2023-05-10T12:52:38;7.20;;;5.33;;
44272;SDS011;29964;17.182;-96.766;2023-05-10T12:55:05;7.87;;;5.93;;
44272;SDS011;29964;17.182;-96.766;2023-05-10T12:57:32;7.83;;;6.03;;
44272;SDS011;29964;17.182;-96.766;2023-05-10T12:59:58;8.70;;;6.20;;
44272;SDS011;29964;17.182;-96.766;2023-05-10T13:02:25;9.47;;;6.33;;
44272;SDS011;29964;17.182;-96.766;2023-05-10T13:04:52;6.67;;;5.50;;
44272;SDS011;29964;17.182;-96.766;2023-05-10T13:07:19;5.67;;;4.30;;
44272;SDS011;29964;17.182;-96.766;2023-05-10T13:09:46;6.77;;;4.03;;
44272;SDS011;29964;17.182;-96.766;2023-05-10T13:12:12;10.10;;;5.87;;
44272;SDS011;29964;17.182;-96.766;2023-05-10T13:14:39;7.17;;;5.03;;
44272;SDS011;29964;17.182;-96.766;2023-05-10T13:17:06;6.30;;;4.90;;
44272;SDS011;29964;17.182;-96.766;2023-05-10T13:19:32;7.47;;;5.63;;
44272;SDS011;29964;17.182;-96.766;2023-05-10T13:21:59;8.30;;;5.57;;
44272;SDS011;29964;17.182;-96.766;2023-05-10T13:24:26;8.53;;;5.73;;
44272;SDS011;29964;17.182;-96.766;2023-05-10T13:26:53;6.43;;;4.43;;
44272;SDS011;29964;17.182;-96.766;2023-05-10T13:29:19;7.20;;;4.97;;
44272;SDS011;29964;17.182;-96.766;2023-05-10T13:31:47;6.07;;;4.83;;
44272;SDS011;29964;17.182;-96.766;2023-05-10T13:34:14;6.27;;;5.07;;
44272;SDS011;29964;17.182;-96.766;2023-05-10T13:36:41;8.23;;;4.97;;
44272;SDS011;29964;17.182;-96.766;2023-05-10T13:39:08;7.33;;;5.50;;
44272;SDS011;29964;17.182;-96.766;2023-05-10T13:41:35;7.67;;;5.27;;
44272;SDS011;29964;17.182;-96.766;2023-05-10T13:44:02;11.67;;;7.30;;
44272;SDS011;29964;17.182;-96.766;2023-05-10T13:46:29;7.37;;;4.97;;
44272;SDS011;29964;17.182;-96.766;2023-05-10T13:48:58;6.73;;;5.40;;
44272;SDS011;29964;17.182;-96.766;2023-05-10T13:51:25;6.67;;;5.17;;
44272;SDS011;29964;17.182;-96.766;2023-05-10T13:53:52;6.17;;;4.50;;
44272;SDS011;29964;17.182;-96.766;2023-05-10T13:56:18;14.70;;;4.93;;
44272;SDS011;29964;17.182;-96.766;2023-05-10T13:58:45;6.93;;;5.23;;
44272;SDS011;29964;17.182;-96.766;2023-05-10T14:01:12;6.80;;;4.40;;
44272;SDS011;29964;17.182;-96.766;2023-05-10T14:03:39;6.57;;;5.20;;
44272;SDS011;29964;17.182;-96.766;2023-05-10T14:06:06;8.17;;;5.37;;
44272;SDS011;29964;17.182;-96.766;2023-05-10T14:08:33;5.77;;;4.13;;
44272;SDS011;29964;17.182;-96.766;2023-05-10T14:11:00;7.90;;;5.40;;
44272;SDS011;29964;17.182;-96.766;2023-05-10T14:13:27;6.93;;;4.87;;
44272;SDS011;29964;17.182;-96.766;2023-05-10T14:15:53;7.30;;;5.23;;
44272;SDS011;29964;17.182;-96.766;2023-05-10T14:18:20;4.67;;;3.73;;
44272;SDS011;29964;17.182;-96.766;2023-05-10T14:20:47;12.77;;;5.87;;
44272;SDS011;29964;17.182;-96.766;2023-05-10T14:23:14;5.80;;;4.23;;
44272;SDS011;29964;17.182;-96.766;2023-05-10T14:25:40;5.80;;;4.20;;
44272;SDS011;29964;17.182;-96.766;2023-05-10T14:28:07;5.33;;;4.43;;
44272;SDS011;29964;17.182;-96.766;2023-05-10T14:30:34;10.73;;;5.33;;
44272;SDS011;29964;17.182;-96.766;2023-05-10T14:33:01;7.80;;;4.67;;
44272;SDS011;29964;17.182;-96.766;2023-05-10T14:35:28;6.80;;;4.30;;
44272;SDS011;29964;17.182;-96.766;2023-05-10T14:37:56;5.60;;;4.63;;
44272;SDS011;29964;17.182;-96.766;2023-05-10T14:40:24;12.03;;;6.10;;
44272;SDS011;29964;17.182;-96.766;2023-05-10T14:42:51;12.63;;;5.60;;
44272;SDS011;29964;17.182;-96.766;2023-05-10T14:45:21;8.67;;;5.63;;
44272;SDS011;29964;17.182;-96.766;2023-05-10T14:47:48;8.00;;;5.33;;